createdAt,value
2019-02-15T00:00:07.473Z,-0.80
2019-02-15T00:02:36.319Z,-0.70
2019-02-15T00:05:05.514Z,-0.70
2019-02-15T00:07:34.305Z,-0.70
2019-02-15T00:10:03.204Z,-0.60
2019-02-15T00:12:32.245Z,-0.70
2019-02-15T00:15:01.788Z,-0.70
2019-02-15T00:18:08.402Z,-0.60
2019-02-15T00:20:42.113Z,-0.80
2019-02-15T00:23:11.421Z,-0.90
2019-02-15T00:25:40.271Z,-0.90
2019-02-15T00:28:09.243Z,-0.90
2019-02-15T00:30:38.332Z,-1.00
2019-02-15T00:33:07.551Z,-1.00
2019-02-15T00:35:36.717Z,-1.00
2019-02-15T00:38:05.487Z,-1.00
2019-02-15T00:40:34.272Z,-1.00
2019-02-15T00:43:03.718Z,-1.10
2019-02-15T00:45:36.594Z,-1.10
2019-02-15T00:48:09.252Z,-1.10
2019-02-15T00:50:44.386Z,-1.10
2019-02-15T00:53:26.409Z,-1.20
2019-02-15T00:56:30.041Z,-1.10
2019-02-15T00:59:16.708Z,-1.20
2019-02-15T01:02:07.570Z,-1.10
2019-02-15T01:04:46.126Z,-1.10
2019-02-15T01:07:32.549Z,-1.00
2019-02-15T01:10:13.031Z,-1.00
2019-02-15T01:12:49.986Z,-1.10
2019-02-15T01:15:18.836Z,-1.10
2019-02-15T01:17:47.873Z,-1.20
2019-02-15T01:20:16.809Z,-1.20
2019-02-15T01:22:45.609Z,-1.20
2019-02-15T01:25:15.257Z,-1.10
2019-02-15T01:28:06.117Z,-1.00
2019-02-15T01:30:53.087Z,-0.90
2019-02-15T01:33:47.074Z,-1.00
2019-02-15T01:36:25.212Z,-1.00
2019-02-15T01:39:16.173Z,-1.10
2019-02-15T01:42:03.519Z,-1.10
2019-02-15T01:44:37.282Z,-1.20
2019-02-15T01:47:13.028Z,-1.10
2019-02-15T01:49:42.343Z,-1.10
2019-02-15T01:52:11.122Z,-1.10
2019-02-15T01:54:40.222Z,-1.00
2019-02-15T01:57:09.734Z,-1.00
2019-02-15T01:59:38.599Z,-1.00
2019-02-15T02:02:07.941Z,-1.00
2019-02-15T02:04:37.219Z,-1.00
2019-02-15T02:07:05.988Z,-0.90
2019-02-15T02:09:35.289Z,-0.80
2019-02-15T02:12:04.792Z,-0.60
2019-02-15T02:14:33.564Z,-0.50
2019-02-15T02:17:02.352Z,-0.30
2019-02-15T02:19:31.156Z,-0.20
2019-02-15T02:22:00.372Z,-0.30
2019-02-15T02:24:29.706Z,-0.40
2019-02-15T02:26:58.477Z,-0.50
2019-02-15T02:29:27.555Z,-0.60
2019-02-15T02:31:56.441Z,-0.60
2019-02-15T02:34:25.218Z,-0.60
2019-02-15T02:36:57.372Z,-0.70
2019-02-15T02:39:26.889Z,-0.60
2019-02-15T02:41:55.754Z,-0.70
2019-02-15T02:44:24.504Z,-0.70
2019-02-15T02:46:53.368Z,-0.70
2019-02-15T02:49:22.344Z,-0.70
2019-02-15T02:51:51.188Z,-0.80
2019-02-15T02:54:20.404Z,-0.80
2019-02-15T02:56:49.184Z,-0.90
2019-02-15T02:59:18.028Z,-0.80
2019-02-15T03:01:46.777Z,-0.80
2019-02-15T03:04:16.326Z,-0.80
2019-02-15T03:06:45.704Z,-0.80
2019-02-15T03:09:14.804Z,-0.80
2019-02-15T03:11:43.635Z,-0.80
2019-02-15T03:14:12.489Z,-0.80
2019-02-15T03:16:41.612Z,-0.90
2019-02-15T03:19:10.396Z,-1.00
2019-02-15T03:21:39.233Z,-1.00
2019-02-15T03:24:08.375Z,-1.00
2019-02-15T03:26:37.431Z,-1.00
2019-02-15T03:29:06.509Z,-1.00
2019-02-15T03:31:35.262Z,-1.10
2019-02-15T03:34:04.142Z,-1.10
2019-02-15T03:36:50.550Z,-1.10
2019-02-15T03:39:32.931Z,-1.10
2019-02-15T03:42:02.235Z,-1.10
2019-02-15T03:44:31.321Z,-1.10
2019-02-15T03:47:00.136Z,-1.10
2019-02-15T03:49:28.940Z,-1.10
2019-02-15T03:51:58.125Z,-1.10
2019-02-15T03:54:27.137Z,-1.10
2019-02-15T03:56:55.964Z,-1.10
2019-02-15T03:59:25.197Z,-1.00
2019-02-15T04:01:54.280Z,-1.10
2019-02-15T04:04:23.049Z,-1.10
2019-02-15T04:06:52.554Z,-1.00
2019-02-15T04:09:21.312Z,-1.00
2019-02-15T04:11:50.660Z,-1.00
2019-02-15T04:14:19.745Z,-1.00
2019-02-15T04:16:48.521Z,-1.00
2019-02-15T04:19:17.614Z,-1.00
2019-02-15T04:21:46.424Z,-1.00
2019-02-15T04:24:16.011Z,-1.10
2019-02-15T04:26:44.880Z,-1.10
2019-02-15T04:29:13.627Z,-1.20
2019-02-15T04:31:42.391Z,-1.20
2019-02-15T04:34:11.161Z,-1.20
2019-02-15T04:36:39.936Z,-1.20
2019-02-15T04:39:08.765Z,-1.10
2019-02-15T04:41:37.840Z,-1.10
2019-02-15T04:44:07.442Z,-1.10
2019-02-15T04:46:36.545Z,-1.20
2019-02-15T04:49:05.844Z,-1.20
2019-02-15T04:51:35.055Z,-1.10
2019-02-15T04:54:04.179Z,-1.10
2019-02-15T04:56:33.224Z,-1.10
2019-02-15T04:59:02.330Z,-1.20
2019-02-15T05:01:31.572Z,-1.20
2019-02-15T05:04:01.161Z,-1.20
2019-02-15T05:06:30.306Z,-1.10
2019-02-15T05:08:59.089Z,-1.00
2019-02-15T05:11:27.890Z,-0.90
2019-02-15T05:13:56.972Z,-0.90
2019-02-15T05:16:25.730Z,-0.90
2019-02-15T05:18:54.763Z,-0.90
2019-02-15T05:21:25.284Z,-0.90
2019-02-15T05:23:54.394Z,-0.90
2019-02-15T05:26:23.221Z,-0.90
2019-02-15T05:28:52.461Z,-0.90
2019-02-15T05:31:21.319Z,-1.00
2019-02-15T05:33:50.152Z,-1.00
2019-02-15T05:36:19.115Z,-0.90
2019-02-15T05:38:47.881Z,-1.00
2019-02-15T05:41:17.224Z,-1.00
2019-02-15T05:43:46.314Z,-1.00
2019-02-15T05:46:15.862Z,-0.90
2019-02-15T05:48:44.724Z,-0.90
2019-02-15T05:51:13.537Z,-0.90
2019-02-15T05:53:42.614Z,-0.90
2019-02-15T05:56:12.028Z,-1.00
2019-02-15T05:58:40.826Z,-1.00
2019-02-15T06:01:11.272Z,-1.00
2019-02-15T06:03:40.080Z,-1.10
2019-02-15T06:06:08.876Z,-1.10
2019-02-15T06:08:45.081Z,-1.10
2019-02-15T06:11:13.886Z,-1.10
2019-02-15T06:13:42.697Z,-1.20
2019-02-15T06:16:11.947Z,-1.20
2019-02-15T06:18:41.089Z,-1.10
2019-02-15T06:21:10.253Z,-1.10
2019-02-15T06:23:39.345Z,-1.20
2019-02-15T06:26:08.624Z,-1.10
2019-02-15T06:28:38.048Z,-1.10
2019-02-15T06:31:07.346Z,-1.10
2019-02-15T06:33:36.136Z,-1.20
2019-02-15T06:36:04.993Z,-1.20
2019-02-15T06:38:35.235Z,-1.20
2019-02-15T06:41:04.227Z,-1.20
2019-02-15T06:43:33.121Z,-1.10
2019-02-15T06:46:02.098Z,-1.10
2019-02-15T06:48:31.308Z,-1.10
2019-02-15T06:51:00.250Z,-1.10
2019-02-15T06:53:30.148Z,-1.10
2019-02-15T06:55:59.157Z,-1.00
2019-02-15T06:58:28.620Z,-1.00
2019-02-15T07:01:15.361Z,-0.90
2019-02-15T07:03:52.050Z,-1.00
2019-02-15T07:06:21.205Z,-1.00
2019-02-15T07:08:50.653Z,-0.80
2019-02-15T07:11:19.455Z,-0.70
2019-02-15T07:13:48.342Z,-0.70
2019-02-15T07:16:17.178Z,-0.70
2019-02-15T07:18:46.081Z,-0.70
2019-02-15T07:21:15.040Z,-0.60
2019-02-15T07:23:44.044Z,-0.60
2019-02-15T07:26:13.727Z,-0.50
2019-02-15T07:28:43.134Z,-0.40
2019-02-15T07:31:12.557Z,-0.40
2019-02-15T07:33:41.945Z,-0.30
2019-02-15T07:36:11.862Z,-0.10
2019-02-15T07:38:41.085Z,0.00
2019-02-15T07:41:10.087Z,0.00
2019-02-15T07:43:39.344Z,0.10
2019-02-15T07:46:12.883Z,0.40
2019-02-15T07:48:41.845Z,0.60
2019-02-15T07:51:11.325Z,0.80
2019-02-15T07:53:40.312Z,0.90
2019-02-15T07:56:09.631Z,1.10
2019-02-15T07:58:38.587Z,1.10
2019-02-15T08:01:07.482Z,1.40
2019-02-15T08:03:36.369Z,1.60
2019-02-15T08:06:05.298Z,1.90
2019-02-15T08:08:34.301Z,2.00
2019-02-15T08:11:03.598Z,2.00
2019-02-15T08:13:32.502Z,2.10
2019-02-15T08:16:02.891Z,2.20
2019-02-15T08:18:32.333Z,2.10
2019-02-15T08:21:01.324Z,2.20
2019-02-15T08:23:30.242Z,2.40
2019-02-15T08:25:59.073Z,2.80
2019-02-15T08:28:28.251Z,3.10
2019-02-15T08:30:57.135Z,3.20
2019-02-15T08:33:26.072Z,3.40
2019-02-15T08:35:54.914Z,3.50
2019-02-15T08:38:23.852Z,3.70
2019-02-15T08:40:53.024Z,3.80
2019-02-15T08:43:23.147Z,3.90
2019-02-15T08:46:00.337Z,4.00
2019-02-15T08:48:23.221Z,4.20
2019-02-15T08:50:52.215Z,4.40
2019-02-15T08:53:21.321Z,5.30
2019-02-15T08:55:50.331Z,5.50
2019-02-15T08:58:19.581Z,5.10
2019-02-15T09:00:49.086Z,4.90
2019-02-15T09:03:18.158Z,4.80
2019-02-15T09:05:47.502Z,4.80
2019-02-15T09:08:16.438Z,4.80
2019-02-15T09:10:45.385Z,4.90
2019-02-15T09:13:14.635Z,5.00
2019-02-15T09:15:43.684Z,5.00
2019-02-15T09:18:13.437Z,5.00
2019-02-15T09:20:42.989Z,5.10
2019-02-15T09:23:12.442Z,5.30
2019-02-15T09:25:41.425Z,5.30
2019-02-15T09:28:22.708Z,5.50
2019-02-15T09:30:53.281Z,5.60
2019-02-15T09:33:22.282Z,5.60
2019-02-15T09:35:51.473Z,5.70
2019-02-15T09:38:20.604Z,5.90
2019-02-15T09:40:49.970Z,5.90
2019-02-15T09:43:19.103Z,6.20
2019-02-15T09:45:48.082Z,6.20
2019-02-15T09:48:17.120Z,6.30
2019-02-15T09:50:46.040Z,6.40
2019-02-15T09:53:15.312Z,6.70
2019-02-15T09:55:44.217Z,7.00
2019-02-15T09:58:13.208Z,8.90
2019-02-15T10:00:42.393Z,11.30
2019-02-15T10:03:11.325Z,12.70
2019-02-15T10:05:40.205Z,13.20
2019-02-15T10:08:09.584Z,13.70
2019-02-15T10:10:38.517Z,15.30
2019-02-15T10:13:08.328Z,15.00
2019-02-15T10:15:37.588Z,15.10
2019-02-15T10:18:06.617Z,15.70
2019-02-15T10:20:35.491Z,15.50
2019-02-15T10:23:05.109Z,16.40
2019-02-15T10:25:34.058Z,16.60
2019-02-15T10:28:03.376Z,16.40
2019-02-15T10:30:32.683Z,16.30
2019-02-15T10:33:02.169Z,15.60
2019-02-15T10:35:31.082Z,16.40
2019-02-15T10:38:00.102Z,17.80
2019-02-15T10:40:29.717Z,17.50
2019-02-15T10:42:58.893Z,15.80
2019-02-15T10:45:27.956Z,16.10
2019-02-15T10:47:57.463Z,16.60
2019-02-15T10:50:26.451Z,18.10
2019-02-15T10:52:55.367Z,18.40
2019-02-15T10:55:24.301Z,18.90
2019-02-15T10:57:53.519Z,18.20
2019-02-15T11:00:22.529Z,18.40
2019-02-15T11:02:51.469Z,19.10
2019-02-15T11:05:21.666Z,19.60
2019-02-15T11:07:51.196Z,19.00
2019-02-15T11:10:20.615Z,18.60
2019-02-15T11:12:49.745Z,18.00
2019-02-15T11:15:37.876Z,18.20
2019-02-15T11:18:17.318Z,19.50
2019-02-15T11:20:46.304Z,19.70
2019-02-15T11:23:15.546Z,19.10
2019-02-15T11:25:44.694Z,18.70
2019-02-15T11:28:13.905Z,17.50
2019-02-15T11:30:42.769Z,17.00
2019-02-15T11:33:11.668Z,16.20
2019-02-15T11:35:40.912Z,16.30
2019-02-15T11:38:17.651Z,16.10
2019-02-15T11:40:46.478Z,16.20
2019-02-15T11:43:15.333Z,15.90
2019-02-15T11:45:46.377Z,15.20
2019-02-15T11:48:33.486Z,14.40
2019-02-15T11:51:02.416Z,13.80
2019-02-15T11:53:31.557Z,13.40
2019-02-15T11:56:00.384Z,13.00
2019-02-15T11:58:29.298Z,12.70
2019-02-15T12:00:59.900Z,12.40
2019-02-15T12:03:28.793Z,12.20
2019-02-15T12:05:58.641Z,12.10
2019-02-15T12:08:36.004Z,12.00
2019-02-15T12:11:04.908Z,12.00
2019-02-15T12:13:33.699Z,12.10
2019-02-15T12:16:02.602Z,12.10
2019-02-15T12:18:31.492Z,12.10
2019-02-15T12:21:00.566Z,12.00
2019-02-15T12:23:29.544Z,12.00
2019-02-15T12:25:58.584Z,11.90
2019-02-15T12:28:27.694Z,12.00
2019-02-15T12:30:56.744Z,12.00
2019-02-15T12:33:25.818Z,12.00
2019-02-15T12:35:54.581Z,11.90
2019-02-15T12:38:23.594Z,11.90
2019-02-15T12:40:52.420Z,11.90
2019-02-15T12:43:21.250Z,12.00
2019-02-15T12:45:50.308Z,12.00
2019-02-15T12:48:19.070Z,12.10
2019-02-15T12:50:47.949Z,12.20
2019-02-15T12:53:17.000Z,12.20
2019-02-15T12:55:45.795Z,12.20
2019-02-15T12:58:14.556Z,12.20
2019-02-15T13:00:43.372Z,12.10
2019-02-15T13:03:12.705Z,12.10
2019-02-15T13:05:41.951Z,12.30
2019-02-15T13:08:11.020Z,12.30
2019-02-15T13:10:40.546Z,12.40
2019-02-15T13:13:09.468Z,12.40
2019-02-15T13:15:38.288Z,12.40
2019-02-15T13:18:07.228Z,12.40
2019-02-15T13:20:36.071Z,12.40
2019-02-15T13:23:04.882Z,12.30
2019-02-15T13:25:36.718Z,12.50
2019-02-15T13:28:04.379Z,12.50
2019-02-15T13:30:33.199Z,12.50
2019-02-15T13:33:02.314Z,12.70
2019-02-15T13:35:31.176Z,12.70
2019-02-15T13:37:59.991Z,12.70
2019-02-15T13:40:28.747Z,12.60
2019-02-15T13:42:57.840Z,12.70
2019-02-15T13:45:26.583Z,12.80
2019-02-15T13:47:55.352Z,12.90
2019-02-15T13:50:24.164Z,12.90
2019-02-15T13:52:52.934Z,13.00
2019-02-15T13:55:21.764Z,13.00
2019-02-15T13:57:50.543Z,12.90
2019-02-15T14:00:19.300Z,12.90
2019-02-15T14:02:48.063Z,13.00
2019-02-15T14:05:17.153Z,12.90
2019-02-15T14:07:45.983Z,12.90
2019-02-15T14:10:14.832Z,12.90
2019-02-15T14:12:43.682Z,12.90
2019-02-15T14:15:12.889Z,12.90
2019-02-15T14:17:46.274Z,13.00
2019-02-15T14:20:12.544Z,13.10
2019-02-15T14:22:41.372Z,13.10
2019-02-15T14:25:10.730Z,13.30
2019-02-15T14:27:39.609Z,13.30
2019-02-15T14:30:09.449Z,13.20
2019-02-15T14:32:38.291Z,13.20
2019-02-15T14:35:08.175Z,13.10
2019-02-15T14:37:36.940Z,13.10
2019-02-15T14:40:05.792Z,13.30
2019-02-15T14:42:34.621Z,13.40
2019-02-15T14:45:03.808Z,13.20
2019-02-15T14:47:32.642Z,13.20
2019-02-15T14:50:01.386Z,13.20
2019-02-15T14:52:30.137Z,13.30
2019-02-15T14:54:59.133Z,13.40
2019-02-15T14:57:27.876Z,13.50
2019-02-15T14:59:56.993Z,13.40
2019-02-15T15:02:25.790Z,13.30
2019-02-15T15:04:54.562Z,13.20
2019-02-15T15:07:23.308Z,13.30
2019-02-15T15:09:52.324Z,13.50
2019-02-15T15:12:21.672Z,13.50
2019-02-15T15:14:50.581Z,13.50
2019-02-15T15:17:19.590Z,13.40
2019-02-15T15:19:48.632Z,13.40
2019-02-15T15:22:17.494Z,13.30
2019-02-15T15:24:46.287Z,13.20
2019-02-15T15:27:15.663Z,13.20
2019-02-15T15:29:44.436Z,13.10
2019-02-15T15:32:13.480Z,13.10
2019-02-15T15:34:42.397Z,13.10
2019-02-15T15:37:16.508Z,13.10
2019-02-15T15:39:41.632Z,12.90
2019-02-15T15:42:10.466Z,12.80
2019-02-15T15:44:39.224Z,13.00
2019-02-15T15:47:08.135Z,12.80
2019-02-15T15:49:36.890Z,12.80
2019-02-15T15:52:05.972Z,12.70
2019-02-15T15:54:34.961Z,12.50
2019-02-15T15:57:03.724Z,12.20
2019-02-15T15:59:32.893Z,12.10
2019-02-15T16:02:01.660Z,11.80
2019-02-15T16:04:30.655Z,11.80
2019-02-15T16:06:59.438Z,11.70
2019-02-15T16:09:28.269Z,11.60
2019-02-15T16:11:57.055Z,11.40
2019-02-15T16:14:25.863Z,11.40
2019-02-15T16:16:54.619Z,11.20
2019-02-15T16:19:23.409Z,11.00
2019-02-15T16:21:52.220Z,10.90
2019-02-15T16:24:20.988Z,10.80
2019-02-15T16:26:50.076Z,10.80
2019-02-15T16:29:18.928Z,10.80
2019-02-15T16:31:47.675Z,10.70
2019-02-15T16:34:17.900Z,10.50
2019-02-15T16:36:47.093Z,10.20
2019-02-15T16:39:15.921Z,10.00
2019-02-15T16:41:44.663Z,9.80
2019-02-15T16:44:13.615Z,9.60
2019-02-15T16:46:42.443Z,9.40
2019-02-15T16:49:11.192Z,9.30
2019-02-15T16:51:39.956Z,9.10
2019-02-15T16:54:08.732Z,9.00
2019-02-15T16:56:37.567Z,8.90
2019-02-15T16:59:06.316Z,8.80
2019-02-15T17:01:35.160Z,8.70
2019-02-15T17:04:04.078Z,8.60
2019-02-15T17:06:33.133Z,8.50
2019-02-15T17:09:01.886Z,8.50
2019-02-15T17:11:31.088Z,8.50
2019-02-15T17:13:59.941Z,8.50
2019-02-15T17:16:28.935Z,8.40
2019-02-15T17:18:57.691Z,8.30
2019-02-15T17:21:26.554Z,8.10
2019-02-15T17:23:55.284Z,8.00
2019-02-15T17:26:24.059Z,7.90
2019-02-15T17:28:52.799Z,7.70
2019-02-15T17:31:21.573Z,7.50
2019-02-15T17:33:50.366Z,7.40
2019-02-15T17:36:19.143Z,7.40
2019-02-15T17:38:48.156Z,7.30
2019-02-15T17:41:16.904Z,7.10
2019-02-15T17:43:45.649Z,7.10
2019-02-15T17:46:14.412Z,7.10
2019-02-15T17:48:43.325Z,7.10
2019-02-15T17:51:12.684Z,7.10
2019-02-15T17:53:41.448Z,6.90
2019-02-15T17:56:10.281Z,6.80
2019-02-15T17:58:39.701Z,6.70
2019-02-15T18:01:09.569Z,6.60
2019-02-15T18:03:38.593Z,6.60
2019-02-15T18:06:07.352Z,6.50
2019-02-15T18:08:36.423Z,6.60
2019-02-15T18:11:05.240Z,6.50
2019-02-15T18:13:34.312Z,6.50
2019-02-15T18:16:03.063Z,6.40
2019-02-15T18:18:32.315Z,6.30
2019-02-15T18:21:01.094Z,6.30
2019-02-15T18:23:29.845Z,6.30
2019-02-15T18:25:58.584Z,6.20
2019-02-15T18:28:27.356Z,6.20
2019-02-15T18:30:56.101Z,6.20
2019-02-15T18:33:24.858Z,6.00
2019-02-15T18:35:54.016Z,5.90
2019-02-15T18:38:23.781Z,5.80
2019-02-15T18:40:52.525Z,5.70
2019-02-15T18:43:21.844Z,5.60
2019-02-15T18:45:51.308Z,5.50
2019-02-15T18:48:20.128Z,5.40
2019-02-15T18:50:49.005Z,5.50
2019-02-15T18:53:17.759Z,5.50
2019-02-15T18:55:46.508Z,5.50
2019-02-15T18:58:15.334Z,5.50
2019-02-15T19:00:44.352Z,5.80
2019-02-15T19:03:13.390Z,5.90
2019-02-15T19:05:42.204Z,6.00
2019-02-15T19:08:10.988Z,5.80
2019-02-15T19:10:40.060Z,5.70
2019-02-15T19:13:08.821Z,5.60
2019-02-15T19:15:37.665Z,5.40
2019-02-15T19:18:06.555Z,5.20
2019-02-15T19:20:35.321Z,5.20
2019-02-15T19:23:04.419Z,5.10
2019-02-15T19:25:33.370Z,4.90
2019-02-15T19:28:10.441Z,4.90
2019-02-15T19:30:39.752Z,4.70
2019-02-15T19:33:09.057Z,4.80
2019-02-15T19:35:38.076Z,4.70
2019-02-15T19:38:06.846Z,4.60
2019-02-15T19:40:36.277Z,4.50
2019-02-15T19:43:05.166Z,4.50
2019-02-15T19:45:34.581Z,4.40
2019-02-15T19:48:03.459Z,4.40
2019-02-15T19:50:32.370Z,4.30
2019-02-15T19:53:01.470Z,4.30
2019-02-15T19:55:30.365Z,4.20
2019-02-15T19:57:59.172Z,4.00
2019-02-15T20:00:28.117Z,3.80
2019-02-15T20:02:56.920Z,3.70
2019-02-15T20:05:25.817Z,3.70
2019-02-15T20:07:54.654Z,3.60
2019-02-15T20:10:23.613Z,3.50
2019-02-15T20:12:52.379Z,3.30
2019-02-15T20:15:21.545Z,3.40
2019-02-15T20:17:50.405Z,3.30
2019-02-15T20:20:19.216Z,3.20
2019-02-15T20:22:48.001Z,3.10
2019-02-15T20:25:16.994Z,3.10
2019-02-15T20:27:46.895Z,3.10
2019-02-15T20:30:17.344Z,3.10
2019-02-15T20:32:46.450Z,3.00
2019-02-15T20:35:15.213Z,3.00
2019-02-15T20:37:44.053Z,2.90
2019-02-15T20:40:13.308Z,2.90
2019-02-15T20:42:42.245Z,2.90
2019-02-15T20:45:13.962Z,2.80
2019-02-15T20:47:43.052Z,2.80
2019-02-15T20:50:12.073Z,2.80
2019-02-15T20:52:40.936Z,2.80
2019-02-15T20:55:11.461Z,2.90
2019-02-15T20:57:40.571Z,2.90
2019-02-15T21:00:12.101Z,2.90
2019-02-15T21:02:40.874Z,3.10
2019-02-15T21:05:10.329Z,3.20
2019-02-15T21:07:39.119Z,3.10
2019-02-15T21:10:09.641Z,3.10
2019-02-15T21:12:39.631Z,2.90
2019-02-15T21:15:09.048Z,2.90
2019-02-15T21:17:38.177Z,2.90
2019-02-15T21:20:08.490Z,2.90
2019-02-15T21:22:37.354Z,2.90
2019-02-15T21:25:07.455Z,2.80
2019-02-15T21:27:36.221Z,2.80
2019-02-15T21:30:06.131Z,2.70
2019-02-15T21:32:35.402Z,2.60
2019-02-15T21:35:04.455Z,2.60
2019-02-15T21:37:33.244Z,2.50
2019-02-15T21:40:02.073Z,2.40
2019-02-15T21:42:30.904Z,2.40
2019-02-15T21:44:59.683Z,2.30
2019-02-15T21:47:28.847Z,2.30
2019-02-15T21:49:57.612Z,2.20
2019-02-15T21:52:26.448Z,2.20
2019-02-15T21:54:55.566Z,2.10
2019-02-15T21:57:24.946Z,2.10
2019-02-15T21:59:53.730Z,1.90
2019-02-15T22:02:22.685Z,1.90
2019-02-15T22:04:51.448Z,1.90
2019-02-15T22:07:20.485Z,1.90
2019-02-15T22:09:49.364Z,2.00
2019-02-15T22:12:18.123Z,1.90
2019-02-15T22:14:47.064Z,1.90
2019-02-15T22:17:15.831Z,1.90
2019-02-15T22:19:44.601Z,1.80
2019-02-15T22:22:13.424Z,1.80
2019-02-15T22:24:42.183Z,1.90
2019-02-15T22:27:10.955Z,1.90
2019-02-15T22:29:39.824Z,1.80
2019-02-15T22:32:08.700Z,1.80
2019-02-15T22:34:38.159Z,1.70
2019-02-15T22:37:07.327Z,1.60
2019-02-15T22:39:36.099Z,1.60
2019-02-15T22:42:05.368Z,1.50
2019-02-15T22:44:34.477Z,1.50
2019-02-15T22:47:03.513Z,1.40
2019-02-15T22:49:42.943Z,1.40
2019-02-15T22:52:03.124Z,1.40
2019-02-15T22:54:32.463Z,1.60
2019-02-15T22:57:01.266Z,1.60
2019-02-15T22:59:31.104Z,1.70
2019-02-15T23:02:00.018Z,1.70
2019-02-15T23:04:29.071Z,1.60
2019-02-15T23:06:57.844Z,1.40
2019-02-15T23:09:26.790Z,1.30
2019-02-15T23:11:55.901Z,1.20
2019-02-15T23:14:24.960Z,1.20
2019-02-15T23:16:53.830Z,1.00
2019-02-15T23:19:22.677Z,0.90
2019-02-15T23:21:51.524Z,1.00
2019-02-15T23:24:20.289Z,1.00
2019-02-15T23:26:49.046Z,1.10
2019-02-15T23:29:17.964Z,1.00
2019-02-15T23:31:47.101Z,1.00
2019-02-15T23:34:15.876Z,1.00
2019-02-15T23:36:44.652Z,1.00
2019-02-15T23:39:13.761Z,1.00
2019-02-15T23:41:42.861Z,0.90
2019-02-15T23:44:12.001Z,1.00
2019-02-15T23:46:40.755Z,1.10
2019-02-15T23:49:09.592Z,1.10
2019-02-15T23:51:38.375Z,1.20
2019-02-15T23:54:07.181Z,1.20
2019-02-15T23:56:36.047Z,1.10
2019-02-15T23:59:04.804Z,1.00
